createdAt,value
2022-12-17T00:00:35.662Z,4.37
2022-12-17T00:01:35.462Z,4.37
2022-12-17T00:02:35.949Z,4.28
2022-12-17T00:03:36.405Z,4.28
2022-12-17T00:04:35.623Z,4.26
2022-12-17T00:05:35.226Z,4.23
2022-12-17T00:06:35.245Z,4.23
2022-12-17T00:07:35.297Z,4.24
2022-12-17T00:08:35.541Z,4.19
2022-12-17T00:09:35.281Z,4.05
2022-12-17T00:10:35.290Z,4.22
2022-12-17T00:11:35.571Z,4.06
2022-12-17T00:12:35.323Z,4.04
2022-12-17T00:13:36.101Z,4.1
2022-12-17T00:14:35.614Z,4.02
2022-12-17T00:15:35.617Z,4.04
2022-12-17T00:16:35.920Z,3.99
2022-12-17T00:17:35.398Z,3.94
2022-12-17T00:18:35.389Z,3.99
2022-12-17T00:19:35.406Z,3.94
2022-12-17T00:20:35.787Z,3.86
2022-12-17T00:21:35.444Z,3.8
2022-12-17T00:22:35.710Z,3.83
2022-12-17T00:23:36.372Z,3.83
2022-12-17T00:24:35.485Z,3.8
2022-12-17T00:25:35.506Z,3.84
2022-12-17T00:26:35.512Z,3.8
2022-12-17T00:27:35.535Z,3.78
2022-12-17T00:28:35.567Z,3.74
2022-12-17T00:29:35.295Z,3.68
2022-12-17T00:30:35.826Z,3.69
2022-12-17T00:31:36.065Z,3.68
2022-12-17T00:32:35.848Z,3.7
2022-12-17T00:33:36.667Z,3.66
2022-12-17T00:34:35.357Z,3.56
2022-12-17T00:35:35.888Z,3.62
2022-12-17T00:36:35.967Z,3.62
2022-12-17T00:37:35.918Z,3.59
2022-12-17T00:38:35.923Z,3.53
2022-12-17T00:39:35.937Z,3.48
2022-12-17T00:40:35.437Z,3.56
2022-12-17T00:41:35.709Z,3.53
2022-12-17T00:42:35.982Z,3.58
2022-12-17T00:43:36.960Z,3.51
2022-12-17T00:44:35.484Z,3.41
2022-12-17T00:45:36.023Z,3.53
2022-12-17T00:46:35.997Z,3.45
2022-12-17T00:47:35.541Z,3.4
2022-12-17T00:48:36.998Z,3.36
2022-12-17T00:49:35.551Z,3.44
2022-12-17T00:50:36.084Z,3.4
2022-12-17T00:51:35.893Z,3.37
2022-12-17T00:52:36.199Z,3.34
2022-12-17T00:53:36.537Z,3.28
2022-12-17T00:54:36.178Z,3.28
2022-12-17T00:55:36.173Z,3.29
2022-12-17T00:56:36.169Z,3.34
2022-12-17T00:57:36.180Z,3.25
2022-12-17T00:58:36.196Z,3.26
2022-12-17T00:59:36.203Z,3.22
2022-12-17T01:00:36.497Z,3.16
2022-12-17T01:01:36.897Z,3.13
2022-12-17T01:02:36.657Z,3.16
2022-12-17T01:03:37.057Z,3.1
2022-12-17T01:04:36.011Z,3.07
2022-12-17T01:05:36.017Z,3.08
2022-12-17T01:06:36.294Z,3.14
2022-12-17T01:07:36.305Z,3.1
2022-12-17T01:08:36.391Z,3.1
2022-12-17T01:09:36.083Z,3.04
2022-12-17T01:10:36.351Z,3.01
2022-12-17T01:11:36.099Z,3.04
2022-12-17T01:12:36.386Z,3.01
2022-12-17T01:13:37.159Z,2.93
2022-12-17T01:14:36.430Z,2.98
2022-12-17T01:15:36.159Z,2.9
2022-12-17T01:16:36.696Z,2.93
2022-12-17T01:17:36.188Z,2.85
2022-12-17T01:18:36.454Z,2.87
2022-12-17T01:19:36.688Z,2.85
2022-12-17T01:20:36.235Z,2.83
2022-12-17T01:21:36.507Z,2.8
2022-12-17T01:22:36.505Z,2.85
2022-12-17T01:23:37.229Z,2.87
2022-12-17T01:24:36.607Z,2.79
2022-12-17T01:25:36.296Z,2.79
2022-12-17T01:26:36.563Z,2.82
2022-12-17T01:27:36.576Z,2.77
2022-12-17T01:28:36.575Z,2.87
2022-12-17T01:29:36.607Z,2.79
2022-12-17T01:30:36.342Z,2.79
2022-12-17T01:31:40.120Z,2.72
2022-12-17T01:32:36.629Z,2.75
2022-12-17T01:33:37.166Z,2.79
2022-12-17T01:34:36.683Z,2.65
2022-12-17T01:35:36.406Z,2.65
2022-12-17T01:36:36.685Z,2.67
2022-12-17T01:37:36.433Z,2.68
2022-12-17T01:38:36.719Z,2.71
2022-12-17T01:39:36.735Z,2.6
2022-12-17T01:40:36.827Z,2.6
2022-12-17T01:41:36.750Z,2.53
2022-12-17T01:42:36.771Z,2.5
2022-12-17T01:43:37.739Z,2.53
2022-12-17T01:44:36.788Z,2.57
2022-12-17T01:45:36.671Z,2.56
2022-12-17T01:46:36.556Z,2.62
2022-12-17T01:47:36.560Z,2.61
2022-12-17T01:48:36.830Z,2.5
2022-12-17T01:49:36.843Z,2.54
2022-12-17T01:50:36.869Z,2.5
2022-12-17T01:51:36.388Z,2.53
2022-12-17T01:52:36.629Z,2.47
2022-12-17T01:53:38.039Z,2.5
2022-12-17T01:54:36.923Z,2.5
2022-12-17T01:55:36.404Z,2.5
2022-12-17T01:56:37.002Z,2.46
2022-12-17T01:57:36.945Z,2.47
2022-12-17T01:58:36.974Z,2.43
2022-12-17T01:59:36.463Z,2.42
2022-12-17T02:00:37.107Z,2.44
2022-12-17T02:01:37.490Z,2.39
2022-12-17T02:02:37.052Z,2.42
2022-12-17T02:03:38.180Z,2.39
2022-12-17T02:04:37.037Z,2.43
2022-12-17T02:05:36.799Z,2.38
2022-12-17T02:06:37.064Z,2.44
2022-12-17T02:07:37.374Z,2.38
2022-12-17T02:08:37.099Z,2.36
2022-12-17T02:09:36.844Z,2.33
2022-12-17T02:10:36.854Z,2.31
2022-12-17T02:11:37.127Z,2.26
2022-12-17T02:12:37.569Z,2.32
2022-12-17T02:13:38.100Z,2.33
2022-12-17T02:14:37.168Z,2.25
2022-12-17T02:15:37.177Z,2.31
2022-12-17T02:16:37.261Z,2.2
2022-12-17T02:17:37.207Z,2.26
2022-12-17T02:18:36.950Z,2.35
2022-12-17T02:19:36.971Z,2.28
2022-12-17T02:20:37.243Z,2.25
2022-12-17T02:21:37.267Z,2.26
2022-12-17T02:22:37.277Z,2.26
2022-12-17T02:23:38.231Z,2.17
2022-12-17T02:24:36.780Z,2.2
2022-12-17T02:25:37.056Z,2.31
2022-12-17T02:26:37.326Z,2.24
2022-12-17T02:27:37.352Z,2.26
2022-12-17T02:28:37.479Z,2.18
2022-12-17T02:29:37.359Z,2.22
2022-12-17T02:30:37.116Z,2.26
2022-12-17T02:31:37.582Z,2.17
2022-12-17T02:32:37.128Z,2.26
2022-12-17T02:33:38.336Z,2.14
2022-12-17T02:34:37.177Z,2.14
2022-12-17T02:35:37.433Z,2.14
2022-12-17T02:36:37.443Z,2.14
2022-12-17T02:37:37.209Z,2.14
2022-12-17T02:38:37.462Z,2.13
2022-12-17T02:39:37.487Z,2.14
2022-12-17T02:40:36.974Z,2.11
2022-12-17T02:41:37.509Z,2.14
2022-12-17T02:42:37.264Z,2.13
2022-12-17T02:43:38.468Z,2.17
2022-12-17T02:44:37.692Z,2.11
2022-12-17T02:45:37.434Z,2.15
2022-12-17T02:46:37.317Z,2.06
2022-12-17T02:47:37.332Z,2.11
2022-12-17T02:48:37.336Z,2.15
2022-12-17T02:49:37.351Z,2.08
2022-12-17T02:50:37.630Z,2.06
2022-12-17T02:51:37.370Z,2.02
2022-12-17T02:52:39.705Z,2.02
2022-12-17T02:53:38.612Z,2.07
2022-12-17T02:54:37.672Z,1.99
2022-12-17T02:55:37.419Z,2.04
2022-12-17T02:56:37.437Z,1.92
2022-12-17T02:57:41.056Z,1.88
2022-12-17T02:58:37.724Z,1.89
2022-12-17T02:59:37.726Z,1.92
2022-12-17T03:00:37.823Z,1.91
2022-12-17T03:01:38.194Z,1.94
2022-12-17T03:02:38.297Z,2.06
2022-12-17T03:03:38.970Z,1.95
2022-12-17T03:04:37.795Z,2
2022-12-17T03:05:49.862Z,1.92
2022-12-17T03:06:37.566Z,1.97
2022-12-17T03:07:37.586Z,1.94
2022-12-17T03:08:37.877Z,1.91
2022-12-17T03:09:37.953Z,1.89
2022-12-17T03:10:37.887Z,1.88
2022-12-17T03:11:37.897Z,1.81
2022-12-17T03:12:38.241Z,1.78
2022-12-17T03:13:39.082Z,1.91
2022-12-17T03:14:37.916Z,1.89
2022-12-17T03:15:37.940Z,1.94
2022-12-17T03:16:42.741Z,1.88
2022-12-17T03:17:37.702Z,1.92
2022-12-17T03:18:37.976Z,1.89
2022-12-17T03:19:37.984Z,1.91
2022-12-17T03:20:37.635Z,1.91
2022-12-17T03:21:38.028Z,1.88
2022-12-17T03:22:38.027Z,1.84
2022-12-17T03:23:39.543Z,1.73
2022-12-17T03:24:38.052Z,1.8
2022-12-17T03:25:37.795Z,1.84
2022-12-17T03:26:38.069Z,1.8
2022-12-17T03:27:38.086Z,1.77
2022-12-17T03:28:38.116Z,1.78
2022-12-17T03:29:38.111Z,1.81
2022-12-17T03:30:45.744Z,1.77
2022-12-17T03:31:38.335Z,1.74
2022-12-17T03:32:38.243Z,1.78
2022-12-17T03:33:39.241Z,1.78
2022-12-17T03:34:38.172Z,1.77
2022-12-17T03:35:38.188Z,1.77
2022-12-17T03:36:37.946Z,1.76
2022-12-17T03:37:37.947Z,1.7
2022-12-17T03:38:38.229Z,1.73
2022-12-17T03:39:38.234Z,1.59
2022-12-17T03:40:37.985Z,1.66
2022-12-17T03:41:37.730Z,1.58
2022-12-17T03:42:38.272Z,1.67
2022-12-17T03:43:39.216Z,1.62
2022-12-17T03:44:38.304Z,1.59
2022-12-17T03:45:38.463Z,1.59
2022-12-17T03:46:38.224Z,1.7
2022-12-17T03:47:38.329Z,1.68
2022-12-17T03:48:38.420Z,1.6
2022-12-17T03:49:38.365Z,1.63
2022-12-17T03:50:38.109Z,1.58
2022-12-17T03:51:38.250Z,1.6
2022-12-17T03:52:38.393Z,1.5
2022-12-17T03:53:39.338Z,1.58
2022-12-17T03:54:38.412Z,1.59
2022-12-17T03:55:38.437Z,1.53
2022-12-17T03:56:38.439Z,1.6
2022-12-17T03:57:38.473Z,1.6
2022-12-17T03:58:38.209Z,1.52
2022-12-17T03:59:38.229Z,1.5
2022-12-17T04:00:38.229Z,1.52
2022-12-17T04:01:38.857Z,1.48
2022-12-17T04:02:39.067Z,1.45
2022-12-17T04:03:39.903Z,1.49
2022-12-17T04:04:38.607Z,1.55
2022-12-17T04:05:38.295Z,1.45
2022-12-17T04:06:38.057Z,1.48
2022-12-17T04:07:38.573Z,1.42
2022-12-17T04:08:38.326Z,1.48
2022-12-17T04:09:38.603Z,1.42
2022-12-17T04:10:38.611Z,1.41
2022-12-17T04:11:38.368Z,1.41
2022-12-17T04:12:39.035Z,1.38
2022-12-17T04:13:46.188Z,1.32
2022-12-17T04:14:38.138Z,1.35
2022-12-17T04:15:38.910Z,1.32
2022-12-17T04:16:38.675Z,1.35
2022-12-17T04:17:38.710Z,1.38
2022-12-17T04:18:38.452Z,1.4
2022-12-17T04:19:38.719Z,1.34
2022-12-17T04:20:38.829Z,1.22
2022-12-17T04:21:38.478Z,1.3
2022-12-17T04:22:38.748Z,1.3
2022-12-17T04:23:39.631Z,1.28
2022-12-17T04:24:38.791Z,1.24
2022-12-17T04:25:38.528Z,1.26
2022-12-17T04:26:38.834Z,1.24
2022-12-17T04:27:38.812Z,1.28
2022-12-17T04:28:38.579Z,1.23
2022-12-17T04:29:38.834Z,1.2
2022-12-17T04:30:38.888Z,1.26
2022-12-17T04:31:38.870Z,1.2
2022-12-17T04:32:40.264Z,1.22
2022-12-17T04:33:39.920Z,1.17
2022-12-17T04:34:38.384Z,1.17
2022-12-17T04:35:38.661Z,1.16
2022-12-17T04:36:39.146Z,1.22
2022-12-17T04:37:38.951Z,1.12
2022-12-17T04:38:38.688Z,1.17
2022-12-17T04:39:38.966Z,1.13
2022-12-17T04:40:38.715Z,1.14
2022-12-17T04:41:38.728Z,1.16
2022-12-17T04:42:38.481Z,1.14
2022-12-17T04:43:39.624Z,1.13
2022-12-17T04:44:39.022Z,1.19
2022-12-17T04:45:39.035Z,1.1
2022-12-17T04:46:39.016Z,1.14
2022-12-17T04:47:38.797Z,1.16
2022-12-17T04:48:38.814Z,1.19
2022-12-17T04:49:39.097Z,1.16
2022-12-17T04:50:38.844Z,1.1
2022-12-17T04:51:39.109Z,1.08
2022-12-17T04:52:39.262Z,1.05
2022-12-17T04:53:39.890Z,1.12
2022-12-17T04:54:38.873Z,0.96
2022-12-17T04:55:39.162Z,0.95
2022-12-17T04:56:39.191Z,1.13
2022-12-17T04:57:39.182Z,1.01
2022-12-17T04:58:39.193Z,1.05
2022-12-17T04:59:38.942Z,1.04
2022-12-17T05:00:38.957Z,1.06
2022-12-17T05:01:39.453Z,1.05
2022-12-17T05:02:45.434Z,1.02
2022-12-17T05:03:40.971Z,0.99
2022-12-17T05:04:39.001Z,0.99
2022-12-17T05:05:39.018Z,0.95
2022-12-17T05:06:39.288Z,0.96
2022-12-17T05:07:39.345Z,1.02
2022-12-17T05:08:44.621Z,1.02
2022-12-17T05:09:39.060Z,0.98
2022-12-17T05:10:39.325Z,0.98
2022-12-17T05:11:39.357Z,0.98
2022-12-17T05:12:39.040Z,0.88
2022-12-17T05:13:40.120Z,0.87
2022-12-17T05:14:39.123Z,0.92
2022-12-17T05:15:39.574Z,0.98
2022-12-17T05:16:39.447Z,0.99
2022-12-17T05:17:39.163Z,0.86
2022-12-17T05:18:39.436Z,0.91
2022-12-17T05:19:39.445Z,0.88
2022-12-17T05:20:39.212Z,0.94
2022-12-17T05:21:39.479Z,0.87
2022-12-17T05:22:39.211Z,0.88
2022-12-17T05:23:40.494Z,0.94
2022-12-17T05:24:39.608Z,0.88
2022-12-17T05:25:39.515Z,0.81
2022-12-17T05:26:39.268Z,0.84
2022-12-17T05:27:39.541Z,0.91
2022-12-17T05:28:39.549Z,0.77
2022-12-17T05:29:39.315Z,0.86
2022-12-17T05:30:39.608Z,0.76
2022-12-17T05:31:39.546Z,0.74
2022-12-17T05:32:39.342Z,0.73
2022-12-17T05:33:40.508Z,0.77
2022-12-17T05:34:39.355Z,0.73
2022-12-17T05:35:39.637Z,0.69
2022-12-17T05:36:39.644Z,0.7
2022-12-17T05:37:39.405Z,0.83
2022-12-17T05:38:39.670Z,0.78
2022-12-17T05:39:39.416Z,0.77
2022-12-17T05:40:39.777Z,0.78
2022-12-17T05:41:39.457Z,0.76
2022-12-17T05:42:39.725Z,0.68
2022-12-17T05:43:40.553Z,0.77
2022-12-17T05:44:39.228Z,0.8
2022-12-17T05:45:39.760Z,0.69
2022-12-17T05:46:39.732Z,0.7
2022-12-17T05:47:39.517Z,0.69
2022-12-17T05:48:39.530Z,0.68
2022-12-17T05:49:39.801Z,0.73
2022-12-17T05:50:39.566Z,0.66
2022-12-17T05:51:43.394Z,0.66
2022-12-17T05:52:39.580Z,0.62
2022-12-17T05:53:41.045Z,0.66
2022-12-17T05:54:39.594Z,0.65
2022-12-17T05:55:39.615Z,0.65
2022-12-17T05:56:39.950Z,0.62
2022-12-17T05:57:39.902Z,0.63
2022-12-17T05:58:39.650Z,0.65
2022-12-17T05:59:39.680Z,0.52
2022-12-17T06:00:39.409Z,0.59
2022-12-17T06:01:39.897Z,0.58
2022-12-17T06:02:40.322Z,0.55
2022-12-17T06:03:42.036Z,0.59
2022-12-17T06:04:39.734Z,0.56
2022-12-17T06:05:39.999Z,0.59
2022-12-17T06:06:39.743Z,0.56
2022-12-17T06:07:39.748Z,0.47
2022-12-17T06:08:40.029Z,0.44
2022-12-17T06:09:40.040Z,0.47
2022-12-17T06:10:39.788Z,0.44
2022-12-17T06:11:40.068Z,0.5
2022-12-17T06:12:40.384Z,0.52
2022-12-17T06:13:40.621Z,0.5
2022-12-17T06:14:40.090Z,0.5
2022-12-17T06:15:39.834Z,0.49
2022-12-17T06:16:39.888Z,0.55
2022-12-17T06:17:40.130Z,0.49
2022-12-17T06:18:39.880Z,0.41
2022-12-17T06:19:40.149Z,0.39
2022-12-17T06:20:40.178Z,0.41
2022-12-17T06:21:39.909Z,0.47
2022-12-17T06:22:40.211Z,0.39
2022-12-17T06:23:40.943Z,0.4
2022-12-17T06:24:46.462Z,0.43
2022-12-17T06:25:39.955Z,0.4
2022-12-17T06:26:40.224Z,0.41
2022-12-17T06:27:39.979Z,0.37
2022-12-17T06:28:40.352Z,0.43
2022-12-17T06:29:40.270Z,0.37
2022-12-17T06:30:40.297Z,0.41
2022-12-17T06:31:40.609Z,0.37
2022-12-17T06:32:40.304Z,0.36
2022-12-17T06:33:41.364Z,0.29
2022-12-17T06:34:40.330Z,0.4
2022-12-17T06:35:40.344Z,0.37
2022-12-17T06:36:40.344Z,0.39
2022-12-17T06:37:40.357Z,0.41
2022-12-17T06:38:40.383Z,0.32
2022-12-17T06:39:39.858Z,0.39
2022-12-17T06:40:39.875Z,0.4
2022-12-17T06:41:40.142Z,0.25
2022-12-17T06:42:40.418Z,0.28
2022-12-17T06:43:41.028Z,0.25
2022-12-17T06:44:40.594Z,0.28
2022-12-17T06:45:40.193Z,0.25
2022-12-17T06:46:40.388Z,0.25
2022-12-17T06:47:40.216Z,0.26
2022-12-17T06:48:40.227Z,0.32
2022-12-17T06:49:40.493Z,0.25
2022-12-17T06:50:40.516Z,0.28
2022-12-17T06:51:40.255Z,0.29
2022-12-17T06:52:40.030Z,0.23
2022-12-17T06:53:41.551Z,0.25
2022-12-17T06:54:40.560Z,0.31
2022-12-17T06:55:40.572Z,0.22
2022-12-17T06:56:40.320Z,0.26
2022-12-17T06:57:52.455Z,0.21
2022-12-17T06:58:40.350Z,0.22
2022-12-17T06:59:40.615Z,0.21
2022-12-17T07:00:40.901Z,0.26
2022-12-17T07:01:41.417Z,0.23
2022-12-17T07:02:41.151Z,0.15
2022-12-17T07:03:41.621Z,0.25
2022-12-17T07:04:40.695Z,0.21
2022-12-17T07:05:40.437Z,0.21
2022-12-17T07:06:40.693Z,0.12
2022-12-17T07:07:40.723Z,0.15
2022-12-17T07:08:40.712Z,0.18
2022-12-17T07:09:40.740Z,0.16
2022-12-17T07:10:40.744Z,0.07
2022-12-17T07:11:40.915Z,0.11
2022-12-17T07:12:40.848Z,0.15
2022-12-17T07:13:42.050Z,0.1
2022-12-17T07:14:40.530Z,0.08
2022-12-17T07:15:40.542Z,0.08
2022-12-17T07:16:41.234Z,0.1
2022-12-17T07:17:40.562Z,0.11
2022-12-17T07:18:40.896Z,0.11
2022-12-17T07:19:40.841Z,0.1
2022-12-17T07:20:40.857Z,0.04
2022-12-17T07:21:40.877Z,0.11
2022-12-17T07:22:40.881Z,0.11
2022-12-17T07:23:41.795Z,0.1
2022-12-17T07:24:40.394Z,0.1
2022-12-17T07:25:46.741Z,0
2022-12-17T07:26:40.665Z,0.04
2022-12-17T07:27:40.945Z,0.11
2022-12-17T07:28:40.694Z,0.08
2022-12-17T07:29:40.702Z,0.03
2022-12-17T07:30:40.977Z,-0.03
2022-12-17T07:31:41.263Z,0.03
2022-12-17T07:32:41.082Z,0.03
2022-12-17T07:33:41.752Z,0
2022-12-17T07:34:41.020Z,0
2022-12-17T07:35:41.035Z,-0.03
2022-12-17T07:36:41.039Z,-0.03
2022-12-17T07:37:41.059Z,0.01
2022-12-17T07:38:41.068Z,0.01
2022-12-17T07:39:40.558Z,0.01
2022-12-17T07:40:40.838Z,-0.13
2022-12-17T07:41:41.099Z,-0.06
2022-12-17T07:42:40.852Z,-0.08
2022-12-17T07:43:42.294Z,-0.1
2022-12-17T07:44:41.132Z,-0.11
2022-12-17T07:45:41.343Z,-0.15
2022-12-17T07:46:40.644Z,-0.13
2022-12-17T07:47:41.170Z,-0.07
2022-12-17T07:48:41.323Z,-0.17
2022-12-17T07:49:41.185Z,-0.18
2022-12-17T07:50:40.928Z,-0.1
2022-12-17T07:51:41.209Z,-0.1
2022-12-17T07:52:41.229Z,-0.1
2022-12-17T07:53:42.020Z,-0.07
2022-12-17T07:54:41.237Z,-0.15
2022-12-17T07:55:41.259Z,-0.14
2022-12-17T07:56:41.268Z,-0.1
2022-12-17T07:57:41.276Z,-0.17
2022-12-17T07:58:41.297Z,-0.18
2022-12-17T07:59:41.301Z,-0.08
2022-12-17T08:00:44.735Z,-0.18
2022-12-17T08:01:41.319Z,-0.03
2022-12-17T08:02:41.763Z,-0.17
2022-12-17T08:03:42.713Z,-0.1
2022-12-17T08:04:41.451Z,-0.18
2022-12-17T08:05:40.856Z,-0.13
2022-12-17T08:06:41.131Z,-0.11
2022-12-17T08:07:41.401Z,-0.25
2022-12-17T08:08:41.373Z,-0.11
2022-12-17T08:09:41.460Z,-0.06
2022-12-17T08:10:41.425Z,-0.18
2022-12-17T08:11:41.451Z,-0.21
2022-12-17T08:12:41.648Z,-0.28
2022-12-17T08:13:42.297Z,-0.17
2022-12-17T08:14:41.216Z,-0.13
2022-12-17T08:15:41.249Z,-0.15
2022-12-17T08:16:41.751Z,-0.2
2022-12-17T08:17:41.648Z,-0.1
2022-12-17T08:18:41.001Z,-0.26
2022-12-17T08:19:41.522Z,-0.08
2022-12-17T08:20:41.617Z,-0.14
2022-12-17T08:21:41.295Z,-0.14
2022-12-17T08:22:41.299Z,-0.15
2022-12-17T08:23:42.037Z,-0.14
2022-12-17T08:24:41.328Z,-0.17
2022-12-17T08:25:41.599Z,-0.15
2022-12-17T08:26:48.540Z,-0.15
2022-12-17T08:27:41.368Z,-0.2
2022-12-17T08:28:56.731Z,-0.23
2022-12-17T08:29:41.643Z,-0.23
2022-12-17T08:30:41.367Z,-0.25
2022-12-17T08:31:41.158Z,-0.26
2022-12-17T08:32:41.437Z,-0.18
2022-12-17T08:33:42.150Z,-0.21
2022-12-17T08:34:41.451Z,-0.2
2022-12-17T08:35:41.709Z,-0.21
2022-12-17T08:36:41.789Z,-0.21
2022-12-17T08:37:41.738Z,-0.21
2022-12-17T08:38:41.487Z,-0.13
2022-12-17T08:39:41.239Z,-0.2
2022-12-17T08:40:41.785Z,-0.14
2022-12-17T08:41:41.521Z,-0.18
2022-12-17T08:42:41.539Z,-0.21
2022-12-17T08:43:42.179Z,-0.25
2022-12-17T08:44:41.807Z,-0.28
2022-12-17T08:45:41.723Z,-0.23
2022-12-17T08:46:41.847Z,-0.21
2022-12-17T08:47:41.603Z,-0.17
2022-12-17T08:48:41.855Z,-0.28
2022-12-17T08:49:41.613Z,-0.21
2022-12-17T08:50:41.627Z,-0.25
2022-12-17T08:51:41.896Z,-0.25
2022-12-17T08:52:41.988Z,-0.21
2022-12-17T08:53:43.329Z,-0.17
2022-12-17T08:54:41.713Z,-0.25
2022-12-17T08:55:41.433Z,-0.29
2022-12-17T08:56:41.690Z,-0.29
2022-12-17T08:57:41.450Z,-0.26
2022-12-17T08:58:41.973Z,-0.25
2022-12-17T08:59:41.737Z,-0.21
2022-12-17T09:00:41.997Z,-0.26
2022-12-17T09:01:42.354Z,-0.25
2022-12-17T09:02:42.514Z,-0.31
2022-12-17T09:03:43.422Z,-0.21
2022-12-17T09:04:42.065Z,-0.29
2022-12-17T09:05:42.060Z,-0.28
2022-12-17T09:06:44.024Z,-0.26
2022-12-17T09:07:41.811Z,-0.29
2022-12-17T09:08:42.156Z,-0.29
2022-12-17T09:09:41.837Z,-0.23
2022-12-17T09:10:41.851Z,-0.26
2022-12-17T09:11:42.128Z,-0.31
2022-12-17T09:12:42.222Z,-0.31
2022-12-17T09:13:42.379Z,-0.28
2022-12-17T09:14:41.962Z,-0.29
2022-12-17T09:15:42.170Z,-0.28
2022-12-17T09:16:42.361Z,-0.32
2022-12-17T09:17:42.192Z,-0.26
2022-12-17T09:18:41.938Z,-0.29
2022-12-17T09:19:42.208Z,-0.23
2022-12-17T09:20:41.960Z,-0.26
2022-12-17T09:21:41.718Z,-0.35
2022-12-17T09:22:42.239Z,-0.28
2022-12-17T09:23:42.783Z,-0.34
2022-12-17T09:24:42.416Z,-0.28
2022-12-17T09:25:42.027Z,-0.28
2022-12-17T09:26:42.285Z,-0.32
2022-12-17T09:27:41.794Z,-0.29
2022-12-17T09:28:42.049Z,-0.25
2022-12-17T09:29:42.315Z,-0.29
2022-12-17T09:30:42.503Z,-0.36
2022-12-17T09:31:42.742Z,-0.36
2022-12-17T09:32:42.089Z,-0.39
2022-12-17T09:33:42.841Z,-0.43
2022-12-17T09:34:42.112Z,-0.38
2022-12-17T09:35:42.404Z,-0.43
2022-12-17T09:36:45.341Z,-0.38
2022-12-17T09:37:42.146Z,-0.28
2022-12-17T09:38:42.189Z,-0.29
2022-12-17T09:39:42.434Z,-0.26
2022-12-17T09:40:42.572Z,-0.36
2022-12-17T09:41:42.200Z,-0.35
2022-12-17T09:42:45.576Z,-0.41
2022-12-17T09:43:42.772Z,-0.32
2022-12-17T09:44:42.226Z,-0.36
2022-12-17T09:45:42.243Z,-0.41
2022-12-17T09:46:42.550Z,-0.38
2022-12-17T09:47:42.010Z,-0.38
2022-12-17T09:48:42.535Z,-0.39
2022-12-17T09:49:42.544Z,-0.41
2022-12-17T09:50:42.298Z,-0.39
2022-12-17T09:51:42.052Z,-0.38
2022-12-17T09:52:42.320Z,-0.34
2022-12-17T09:53:42.818Z,-0.44
2022-12-17T09:54:42.592Z,-0.32
2022-12-17T09:55:42.501Z,-0.39
2022-12-17T09:56:42.690Z,-0.41
2022-12-17T09:57:42.644Z,-0.36
2022-12-17T09:58:42.641Z,-0.36
2022-12-17T09:59:42.658Z,-0.46
2022-12-17T10:00:42.178Z,-0.35
2022-12-17T10:01:42.644Z,-0.41
2022-12-17T10:02:43.407Z,-0.5
2022-12-17T10:03:44.155Z,-0.38
2022-12-17T10:04:42.712Z,-0.43
2022-12-17T10:05:42.459Z,-0.43
2022-12-17T10:06:42.738Z,-0.38
2022-12-17T10:07:42.224Z,-0.44
2022-12-17T10:08:42.758Z,-0.39
2022-12-17T10:09:42.861Z,-0.41
2022-12-17T10:10:42.776Z,-0.41
2022-12-17T10:11:42.523Z,-0.38
2022-12-17T10:12:43.075Z,-0.38
2022-12-17T10:13:43.294Z,-0.41
2022-12-17T10:14:42.822Z,-0.44
2022-12-17T10:15:42.803Z,-0.52
2022-12-17T10:16:42.846Z,-0.5
2022-12-17T10:17:42.858Z,-0.49
2022-12-17T10:18:42.602Z,-0.53
2022-12-17T10:19:42.871Z,-0.46
2022-12-17T10:20:42.628Z,-0.5
2022-12-17T10:21:42.900Z,-0.5
2022-12-17T10:22:44.454Z,-0.5
2022-12-17T10:23:43.260Z,-0.39
2022-12-17T10:24:42.676Z,-0.47
2022-12-17T10:25:42.689Z,-0.49
2022-12-17T10:26:42.961Z,-0.53
2022-12-17T10:27:42.708Z,-0.46
2022-12-17T10:28:43.053Z,-0.49
2022-12-17T10:29:50.991Z,-0.46
2022-12-17T10:30:42.948Z,-0.5
2022-12-17T10:31:43.110Z,-0.52
2022-12-17T10:32:43.033Z,-0.47
2022-12-17T10:33:43.405Z,-0.46
2022-12-17T10:34:42.788Z,-0.53
2022-12-17T10:35:42.801Z,-0.49
2022-12-17T10:36:42.817Z,-0.53
2022-12-17T10:37:42.562Z,-0.39
2022-12-17T10:38:42.828Z,-0.43
2022-12-17T10:39:42.846Z,-0.49
2022-12-17T10:40:43.116Z,-0.44
2022-12-17T10:41:43.117Z,-0.47
2022-12-17T10:42:43.125Z,-0.52
2022-12-17T10:43:43.277Z,-0.53
2022-12-17T10:44:43.252Z,-0.43
2022-12-17T10:45:43.199Z,-0.46
2022-12-17T10:46:43.187Z,-0.5
2022-12-17T10:47:42.924Z,-0.49
2022-12-17T10:48:42.938Z,-0.46
2022-12-17T10:49:43.239Z,-0.54
2022-12-17T10:50:43.245Z,-0.49
2022-12-17T10:51:43.250Z,-0.46
2022-12-17T10:52:42.980Z,-0.5
2022-12-17T10:53:43.907Z,-0.53
2022-12-17T10:54:50.005Z,-0.44
2022-12-17T10:55:43.014Z,-0.43
2022-12-17T10:56:43.028Z,-0.49
2022-12-17T10:57:43.039Z,-0.52
2022-12-17T10:58:43.304Z,-0.49
2022-12-17T10:59:42.810Z,-0.46
2022-12-17T11:00:51.574Z,-0.49
2022-12-17T11:01:43.787Z,-0.47
2022-12-17T11:02:44.187Z,-0.52
2022-12-17T11:03:43.597Z,-0.5
2022-12-17T11:04:43.117Z,-0.47
2022-12-17T11:05:43.387Z,-0.46
2022-12-17T11:06:47.372Z,-0.52
2022-12-17T11:07:43.411Z,-0.47
2022-12-17T11:08:43.560Z,-0.52
2022-12-17T11:09:43.438Z,-0.5
2022-12-17T11:10:42.927Z,-0.46
2022-12-17T11:11:43.195Z,-0.52
2022-12-17T11:12:43.504Z,-0.44
2022-12-17T11:13:44.087Z,-0.5
2022-12-17T11:14:43.488Z,-0.44
2022-12-17T11:15:43.156Z,-0.47
2022-12-17T11:16:43.584Z,-0.41
2022-12-17T11:17:43.512Z,-0.41
2022-12-17T11:18:43.264Z,-0.46
2022-12-17T11:19:43.543Z,-0.53
2022-12-17T11:20:43.290Z,-0.5
2022-12-17T11:21:43.566Z,-0.5
2022-12-17T11:22:43.321Z,-0.53
2022-12-17T11:23:44.165Z,-0.44
2022-12-17T11:24:43.333Z,-0.41
2022-12-17T11:25:43.612Z,-0.47
2022-12-17T11:26:43.355Z,-0.46
2022-12-17T11:27:43.637Z,-0.53
2022-12-17T11:28:43.380Z,-0.44
2022-12-17T11:29:43.648Z,-0.52
2022-12-17T11:30:43.681Z,-0.47
2022-12-17T11:31:43.760Z,-0.52
2022-12-17T11:32:43.757Z,-0.47
2022-12-17T11:33:43.854Z,-0.5
2022-12-17T11:34:43.743Z,-0.49
2022-12-17T11:35:43.205Z,-0.5
2022-12-17T11:36:43.985Z,-0.52
2022-12-17T11:37:43.732Z,-0.5
2022-12-17T11:38:43.817Z,-0.54
2022-12-17T11:39:43.771Z,-0.46
2022-12-17T11:40:43.780Z,-0.47
2022-12-17T11:41:43.523Z,-0.53
2022-12-17T11:42:43.928Z,-0.44
2022-12-17T11:43:43.803Z,-0.47
2022-12-17T11:44:43.810Z,-0.46
2022-12-17T11:45:43.826Z,-0.44
2022-12-17T11:46:43.832Z,-0.41
2022-12-17T11:47:43.600Z,-0.47
2022-12-17T11:48:44.559Z,-0.44
2022-12-17T11:49:43.607Z,-0.49
2022-12-17T11:50:43.371Z,-0.44
2022-12-17T11:51:43.638Z,-0.49
2022-12-17T11:52:43.910Z,-0.46
2022-12-17T11:53:43.403Z,-0.46
2022-12-17T11:54:43.678Z,-0.44
2022-12-17T11:55:43.939Z,-0.43
2022-12-17T11:56:43.979Z,-0.46
2022-12-17T11:57:43.979Z,-0.47
2022-12-17T11:58:44.392Z,-0.39
2022-12-17T11:59:46.749Z,-0.49
2022-12-17T12:00:44.012Z,-0.39
2022-12-17T12:01:43.896Z,-0.38
2022-12-17T12:02:44.012Z,-0.38
2022-12-17T12:03:44.416Z,-0.43
2022-12-17T12:04:44.121Z,-0.44
2022-12-17T12:05:43.791Z,-0.34
2022-12-17T12:06:43.810Z,-0.38
2022-12-17T12:07:44.084Z,-0.35
2022-12-17T12:08:44.359Z,-0.41
2022-12-17T12:09:44.091Z,-0.39
2022-12-17T12:10:44.119Z,-0.26
2022-12-17T12:11:43.857Z,-0.26
2022-12-17T12:12:44.340Z,-0.39
2022-12-17T12:13:44.147Z,-0.28
2022-12-17T12:14:43.887Z,-0.31
2022-12-17T12:15:44.230Z,-0.32
2022-12-17T12:16:48.993Z,-0.25
2022-12-17T12:17:44.193Z,-0.32
2022-12-17T12:18:44.498Z,-0.26
2022-12-17T12:19:44.212Z,-0.25
2022-12-17T12:20:44.562Z,-0.26
2022-12-17T12:21:43.966Z,-0.26
2022-12-17T12:22:44.229Z,-0.25
2022-12-17T12:23:43.995Z,-0.25
2022-12-17T12:24:43.995Z,-0.23
2022-12-17T12:25:44.268Z,-0.25
2022-12-17T12:26:44.031Z,-0.26
2022-12-17T12:27:47.322Z,-0.21
2022-12-17T12:28:44.532Z,-0.34
2022-12-17T12:29:44.061Z,-0.25
2022-12-17T12:30:44.068Z,-0.34
2022-12-17T12:31:44.598Z,-0.29
2022-12-17T12:32:44.343Z,-0.36
2022-12-17T12:33:44.146Z,-0.26
2022-12-17T12:34:44.374Z,-0.26
2022-12-17T12:35:44.389Z,-0.38
2022-12-17T12:36:44.469Z,-0.41
2022-12-17T12:37:44.145Z,-0.39
2022-12-17T12:38:51.213Z,-0.41
2022-12-17T12:39:44.420Z,-0.36
2022-12-17T12:40:43.925Z,-0.36
2022-12-17T12:41:44.191Z,-0.38
2022-12-17T12:42:44.532Z,-0.35
2022-12-17T12:43:44.474Z,-0.41
2022-12-17T12:44:49.874Z,-0.44
2022-12-17T12:45:44.186Z,-0.38
2022-12-17T12:46:44.515Z,-0.32
2022-12-17T12:47:44.261Z,-0.41
2022-12-17T12:48:44.923Z,-0.38
2022-12-17T12:49:44.557Z,-0.38
2022-12-17T12:50:44.391Z,-0.34
2022-12-17T12:51:44.567Z,-0.43
2022-12-17T12:52:44.654Z,-0.39
2022-12-17T12:53:44.323Z,-0.34
2022-12-17T12:54:44.337Z,-0.43
2022-12-17T12:55:44.610Z,-0.39
2022-12-17T12:56:44.354Z,-0.43
2022-12-17T12:57:44.627Z,-0.39
2022-12-17T12:58:44.549Z,-0.29
2022-12-17T12:59:44.645Z,-0.39
2022-12-17T13:00:44.713Z,-0.36
2022-12-17T13:01:45.190Z,-0.31
2022-12-17T13:02:45.347Z,-0.36
2022-12-17T13:03:45.179Z,-0.32
2022-12-17T13:04:44.444Z,-0.29
2022-12-17T13:05:44.519Z,-0.29
2022-12-17T13:06:44.740Z,-0.28
2022-12-17T13:07:44.480Z,-0.21
2022-12-17T13:08:45.392Z,-0.23
2022-12-17T13:09:44.764Z,-0.21
2022-12-17T13:10:44.785Z,-0.17